createdAt,value
2023-04-29T00:00:32.145Z,5.57
2023-04-29T00:05:33.793Z,5.54
2023-04-29T00:10:35.453Z,5.50
2023-04-29T00:15:37.554Z,5.45
2023-04-29T00:20:39.570Z,5.41
2023-04-29T00:25:41.063Z,5.36
2023-04-29T00:30:42.589Z,5.32
2023-04-29T00:35:44.164Z,5.30
2023-04-29T00:40:46.036Z,5.28
2023-04-29T00:45:47.793Z,5.26
2023-04-29T00:50:50.803Z,5.26
2023-04-29T00:55:52.678Z,5.26
2023-04-29T01:00:56.540Z,5.27
2023-04-29T01:06:29.221Z,5.25
2023-04-29T01:11:39.906Z,5.24
2023-04-29T01:16:47.656Z,5.24
2023-04-29T01:21:49.526Z,5.26
2023-04-29T01:27:09.446Z,5.27
2023-04-29T01:32:17.567Z,5.27
2023-04-29T01:37:43.168Z,5.29
2023-04-29T01:42:47.140Z,5.31
2023-04-29T01:47:53.003Z,5.34
2023-04-29T01:52:54.637Z,5.36
2023-04-29T01:57:56.136Z,5.36
2023-04-29T02:02:57.925Z,5.35
2023-04-29T02:08:00.915Z,5.35
2023-04-29T02:13:02.806Z,5.37
2023-04-29T02:18:04.321Z,5.35
2023-04-29T02:23:05.963Z,5.35
2023-04-29T02:28:07.544Z,5.35
2023-04-29T02:33:09.165Z,5.36
2023-04-29T02:38:12.106Z,5.37
2023-04-29T02:43:13.839Z,5.38
2023-04-29T02:48:15.975Z,5.39
2023-04-29T02:53:17.567Z,5.40
2023-04-29T02:58:19.121Z,5.39
2023-04-29T03:03:20.837Z,5.38
2023-04-29T03:08:22.518Z,5.36
2023-04-29T03:13:24.099Z,5.37
2023-04-29T03:18:25.624Z,5.36
2023-04-29T03:23:28.041Z,5.33
2023-04-29T03:28:29.519Z,5.35
2023-04-29T03:33:31.132Z,5.36
2023-04-29T03:38:32.589Z,5.42
2023-04-29T03:43:34.328Z,5.48
2023-04-29T03:48:36.887Z,5.58
2023-04-29T03:53:39.066Z,5.68
2023-04-29T03:58:40.636Z,5.80
2023-04-29T04:03:43.505Z,5.93
2023-04-29T04:08:45.097Z,6.08
2023-04-29T04:13:46.624Z,6.22
2023-04-29T04:18:48.152Z,6.31
2023-04-29T04:23:49.674Z,6.44
2023-04-29T04:28:51.162Z,6.58
2023-04-29T04:33:52.701Z,6.72
2023-04-29T04:38:54.213Z,6.86
2023-04-29T04:43:55.729Z,7.04
2023-04-29T04:48:57.236Z,7.23
2023-04-29T04:53:58.710Z,7.47
2023-04-29T04:59:00.223Z,7.71
2023-04-29T05:04:02.969Z,7.92
2023-04-29T05:09:05.459Z,8.15
2023-04-29T05:14:07.055Z,8.35
2023-04-29T05:19:09.680Z,8.56
2023-04-29T05:24:11.535Z,8.78
2023-04-29T05:29:13.464Z,8.98
2023-04-29T05:34:15.131Z,9.07
2023-04-29T05:39:17.642Z,9.24
2023-04-29T05:44:19.141Z,9.39
2023-04-29T05:49:20.766Z,9.52
2023-04-29T05:54:22.302Z,9.59
2023-04-29T05:59:23.857Z,9.71
2023-04-29T06:04:26.664Z,9.76
2023-04-29T06:09:28.657Z,9.75
2023-04-29T06:14:30.685Z,9.78
2023-04-29T06:19:33.654Z,9.80
2023-04-29T06:24:35.127Z,9.89
2023-04-29T06:29:36.689Z,10.01
2023-04-29T06:34:39.489Z,10.19
2023-04-29T06:39:41.156Z,10.36
2023-04-29T06:44:42.769Z,10.51
2023-04-29T06:49:44.246Z,10.65
2023-04-29T06:54:45.780Z,10.76
2023-04-29T06:59:47.310Z,10.92
2023-04-29T07:04:52.845Z,11.10
2023-04-29T07:09:55.124Z,11.27
2023-04-29T07:14:58.176Z,11.44
2023-04-29T07:19:59.987Z,11.65
2023-04-29T07:25:01.491Z,11.90
2023-04-29T07:30:04.812Z,12.04
2023-04-29T07:35:06.694Z,12.13
2023-04-29T07:40:09.116Z,12.20
2023-04-29T07:45:10.866Z,12.26
2023-04-29T07:50:12.754Z,12.44
2023-04-29T07:55:14.282Z,12.68
2023-04-29T08:00:22.329Z,12.89
2023-04-29T08:05:24.775Z,13.07
2023-04-29T08:10:27.333Z,13.25
2023-04-29T08:15:29.868Z,13.47
2023-04-29T08:20:31.440Z,13.71
2023-04-29T08:25:33.332Z,13.87
2023-04-29T08:30:45.314Z,13.96
2023-04-29T08:35:46.856Z,14.10
2023-04-29T08:40:48.380Z,14.22
2023-04-29T08:45:50.348Z,14.32
2023-04-29T08:50:52.126Z,14.44
2023-04-29T08:55:55.331Z,14.60
2023-04-29T09:00:57.279Z,14.72
2023-04-29T09:06:04.163Z,14.75
2023-04-29T09:11:10.533Z,14.77
2023-04-29T09:16:13.271Z,14.83
2023-04-29T09:21:16.129Z,14.82
2023-04-29T09:26:18.065Z,14.84
2023-04-29T09:31:28.310Z,14.88
2023-04-29T09:36:50.994Z,14.91
2023-04-29T09:41:52.433Z,14.93
2023-04-29T09:46:57.512Z,14.99
2023-04-29T09:52:01.960Z,15.09
2023-04-29T09:57:07.273Z,15.17
2023-04-29T10:02:19.062Z,15.23
2023-04-29T10:07:21.600Z,15.30
2023-04-29T10:12:26.581Z,15.39
2023-04-29T10:17:41.543Z,15.52
2023-04-29T10:22:50.190Z,15.60
2023-04-29T10:27:54.844Z,15.64
2023-04-29T10:33:01.723Z,15.69
2023-04-29T10:38:13.821Z,15.78
2023-04-29T10:43:16.175Z,15.83
2023-04-29T10:48:21.028Z,15.93
2023-04-29T10:53:22.546Z,16.00
2023-04-29T10:58:47.249Z,16.03
2023-04-29T11:04:05.056Z,16.19
2023-04-29T11:09:14.569Z,16.29
2023-04-29T11:14:22.658Z,16.39
2023-04-29T11:19:27.170Z,16.41
2023-04-29T11:24:29.043Z,16.33
2023-04-29T11:29:33.514Z,16.31
2023-04-29T11:34:34.988Z,16.54
2023-04-29T11:39:36.642Z,16.75
2023-04-29T11:44:40.146Z,16.94
2023-04-29T11:49:42.844Z,17.08
2023-04-29T11:54:44.330Z,17.13
2023-04-29T11:59:47.264Z,17.17
2023-04-29T12:04:49.312Z,17.19
2023-04-29T12:09:51.603Z,17.36
2023-04-29T12:14:54.414Z,17.40
2023-04-29T12:19:57.279Z,17.49
2023-04-29T12:24:58.839Z,17.53
2023-04-29T12:30:00.381Z,17.41
2023-04-29T12:35:01.882Z,17.22
2023-04-29T12:40:04.244Z,17.02
2023-04-29T12:45:06.980Z,17.03
2023-04-29T12:50:09.480Z,17.08
2023-04-29T12:55:11.489Z,17.07
2023-04-29T13:00:20.951Z,17.28
2023-04-29T13:05:22.851Z,17.43
2023-04-29T13:10:24.369Z,17.82
2023-04-29T13:15:26.866Z,18.02
2023-04-29T13:20:28.634Z,18.02
2023-04-29T13:25:30.122Z,18.17
2023-04-29T13:30:35.987Z,18.48
2023-04-29T13:35:38.458Z,18.56
2023-04-29T13:40:45.455Z,18.71
2023-04-29T13:45:48.614Z,18.64
2023-04-29T13:51:23.459Z,18.67
2023-04-29T14:01:44.063Z,18.46
2023-04-29T14:06:38.277Z,18.74
2023-04-29T14:11:39.803Z,18.69
2023-04-29T14:16:41.641Z,18.82
2023-04-29T14:21:43.357Z,19.30
2023-04-29T14:26:44.997Z,19.16
2023-04-29T14:31:46.667Z,18.84
2023-04-29T14:36:48.289Z,18.54
2023-04-29T14:41:49.759Z,18.46
2023-04-29T14:46:51.460Z,18.42
2023-04-29T14:51:53.006Z,18.49
2023-04-29T14:56:54.548Z,18.52
2023-04-29T15:01:58.776Z,18.60
2023-04-29T15:07:00.287Z,18.53
2023-04-29T15:12:02.303Z,18.39
2023-04-29T15:17:04.026Z,18.36
2023-04-29T15:22:05.571Z,18.36
2023-04-29T15:27:07.291Z,18.29
2023-04-29T15:32:10.642Z,18.18
2023-04-29T15:37:12.477Z,18.11
2023-04-29T15:42:14.010Z,18.05
2023-04-29T15:47:15.817Z,17.94
2023-04-29T15:52:17.634Z,17.87
2023-04-29T15:57:19.181Z,18.12
2023-04-29T16:02:21.278Z,18.82
2023-04-29T16:07:23.073Z,18.70
2023-04-29T16:12:24.960Z,18.30
2023-04-29T16:17:26.659Z,17.94
2023-04-29T16:22:28.303Z,17.64
2023-04-29T16:27:32.479Z,17.35
2023-04-29T16:32:34.633Z,17.08
2023-04-29T16:37:36.684Z,16.81
2023-04-29T16:42:38.189Z,16.60
2023-04-29T16:47:42.271Z,16.38
2023-04-29T16:52:43.795Z,16.23
2023-04-29T16:57:45.291Z,16.14
2023-04-29T17:02:50.486Z,16.10
2023-04-29T17:07:52.709Z,16.05
2023-04-29T17:12:54.763Z,15.97
2023-04-29T17:17:56.528Z,15.91
2023-04-29T17:22:58.030Z,15.79
2023-04-29T17:27:59.766Z,15.71
2023-04-29T17:33:06.023Z,15.62
2023-04-29T17:38:08.011Z,15.54
2023-04-29T17:43:09.635Z,15.45
2023-04-29T17:48:11.374Z,15.38
2023-04-29T17:53:13.947Z,15.28
2023-04-29T17:58:15.437Z,15.20
2023-04-29T18:03:17.077Z,15.13
2023-04-29T18:08:18.757Z,15.07
2023-04-29T18:13:20.536Z,14.97
2023-04-29T18:18:22.044Z,14.91
2023-04-29T18:23:23.554Z,14.84
2023-04-29T18:28:25.899Z,14.76
2023-04-29T18:33:30.929Z,14.66
2023-04-29T18:38:32.762Z,14.52
2023-04-29T18:43:34.830Z,14.40
2023-04-29T18:48:38.407Z,14.31
2023-04-29T18:53:40.008Z,14.25
2023-04-29T18:58:41.856Z,14.20
2023-04-29T19:03:43.574Z,14.15
2023-04-29T19:08:45.110Z,14.06
2023-04-29T19:13:46.684Z,13.95
2023-04-29T19:18:48.228Z,13.81
2023-04-29T19:23:49.737Z,13.71
2023-04-29T19:28:51.227Z,13.63
2023-04-29T19:33:52.718Z,13.56
2023-04-29T19:38:54.295Z,13.48
2023-04-29T19:43:56.021Z,13.40
2023-04-29T19:48:57.624Z,13.33
2023-04-29T19:54:01.735Z,13.23
2023-04-29T19:59:03.225Z,13.17
2023-04-29T20:04:05.883Z,13.12
2023-04-29T20:09:09.380Z,13.07
2023-04-29T20:14:11.092Z,13.02
2023-04-29T20:19:12.616Z,12.95
2023-04-29T20:24:14.146Z,12.81
2023-04-29T20:29:15.919Z,12.66
2023-04-29T20:34:17.650Z,12.54
2023-04-29T20:39:19.858Z,12.44
2023-04-29T20:44:21.348Z,12.33
2023-04-29T20:49:22.962Z,12.25
2023-04-29T20:54:24.488Z,12.18
2023-04-29T20:59:26.403Z,12.10
2023-04-29T21:04:28.164Z,12.02
2023-04-29T21:09:30.080Z,11.97
2023-04-29T21:14:35.133Z,11.95
2023-04-29T21:19:37.726Z,11.92
2023-04-29T21:24:39.329Z,11.86
2023-04-29T21:29:41.091Z,11.81
2023-04-29T21:34:42.658Z,11.74
2023-04-29T21:39:44.139Z,11.67
2023-04-29T21:44:45.682Z,11.63
2023-04-29T21:49:47.812Z,11.58
2023-04-29T21:54:49.354Z,11.55
2023-04-29T21:59:51.200Z,11.50
2023-04-29T22:04:53.762Z,11.45
2023-04-29T22:09:55.456Z,11.42
2023-04-29T22:14:57.294Z,11.35
2023-04-29T22:19:58.784Z,11.31
2023-04-29T22:25:00.420Z,11.26
2023-04-29T22:30:03.176Z,11.19
2023-04-29T22:35:05.815Z,11.16
2023-04-29T22:40:08.266Z,11.24
2023-04-29T22:45:12.115Z,11.32
2023-04-29T22:50:13.762Z,11.31
2023-04-29T22:55:15.417Z,11.30
2023-04-29T23:00:17.369Z,11.28
2023-04-29T23:05:18.869Z,11.27
2023-04-29T23:10:20.504Z,11.21
2023-04-29T23:15:21.979Z,11.16
2023-04-29T23:20:24.109Z,11.11
2023-04-29T23:25:25.895Z,11.01
2023-04-29T23:30:27.384Z,10.95
2023-04-29T23:35:28.854Z,10.90
2023-04-29T23:40:31.779Z,10.86
2023-04-29T23:45:33.415Z,10.84
2023-04-29T23:50:34.989Z,10.80
2023-04-29T23:55:36.503Z,10.74
